Time;durP1;ratioP1;P1;durP2;ratioP2;P2;SDS_P1;SDS_P2;PMS_P1;PMS_P2;Temp;Humidity;BMP_temperature;BMP_pressure;BME280_temperature;BME280_humidity;BME280_pressure;Samples;Min_cycle;Max_cycle;Signal;HPM_P1;HPM_P2
2021/06/19 00:00:40;;;;;;;8.70;5.63;;;;;;;;;;5053286;28;20048;-72
2021/06/19 00:03:07;;;;;;;7.45;4.85;;;;;;;;;;5052785;28;20032;-74
2021/06/19 00:05:33;;;;;;;11.38;5.60;;;;;;;;;;5057009;28;20109;-74
2021/06/19 00:08:00;;;;;;;10.55;5.68;;;;;;;;;;5052435;28;20478;-75
2021/06/19 00:10:26;;;;;;;10.13;5.88;;;;;;;;;;5052139;28;20024;-72
2021/06/19 00:12:52;;;;;;;8.63;5.35;;;;;;;;;;5052136;28;20666;-74
2021/06/19 00:15:20;;;;;;;10.30;6.13;;;;;;;;;;5070178;28;20032;-72
2021/06/19 00:17:46;;;;;;;10.60;5.85;;;;;;;;;;5073661;28;20275;-72
2021/06/19 00:20:14;;;;;;;11.00;6.07;;;;;;;;;;5073899;28;20035;-73
2021/06/19 00:22:41;;;;;;;11.25;6.10;;;;;;;;;;5069794;28;20036;-73
2021/06/19 00:25:08;;;;;;;16.15;6.93;;;;;;;;;;5056259;28;20027;-73
2021/06/19 00:27:34;;;;;;;10.63;6.88;;;;;;;;;;5052883;28;20017;-73
2021/06/19 00:30:00;;;;;;;9.82;6.35;;;;;;;;;;5052965;28;20029;-74
2021/06/19 00:32:27;;;;;;;10.53;6.43;;;;;;;;;;5053308;28;20029;-75
2021/06/19 00:34:53;;;;;;;11.10;5.70;;;;;;;;;;5053904;28;20588;-73
2021/06/19 00:37:19;;;;;;;8.77;6.40;;;;;;;;;;5053802;28;20158;-73
2021/06/19 00:39:45;;;;;;;8.77;6.63;;;;;;;;;;5051204;28;20021;-72
2021/06/19 00:42:11;;;;;;;9.57;5.90;;;;;;;;;;5051159;28;20110;-72
2021/06/19 00:44:37;;;;;;;9.43;6.10;;;;;;;;;;5052227;28;20296;-75
2021/06/19 00:47:03;;;;;;;10.13;5.90;;;;;;;;;;5052280;28;20029;-72
2021/06/19 00:49:29;;;;;;;9.02;5.45;;;;;;;;;;5052820;28;20029;-75
2021/06/19 00:51:55;;;;;;;11.23;5.88;;;;;;;;;;5065131;28;20032;-73
2021/06/19 00:54:21;;;;;;;10.23;6.00;;;;;;;;;;5065618;28;20119;-74
2021/06/19 00:56:49;;;;;;;12.90;6.17;;;;;;;;;;5064378;28;20266;-74
2021/06/19 00:59:15;;;;;;;9.77;6.10;;;;;;;;;;5065810;28;20051;-73
2021/06/19 01:01:41;;;;;;;9.60;5.93;;;;;;;;;;5062497;28;20154;-72
2021/06/19 01:04:07;;;;;;;7.93;5.80;;;;;;;;;;5064401;28;20043;-74
2021/06/19 01:06:34;;;;;;;7.28;5.22;;;;;;;;;;5065000;28;20020;-75
2021/06/19 01:09:00;;;;;;;9.68;6.10;;;;;;;;;;5065746;28;20051;-72
2021/06/19 01:11:26;;;;;;;9.10;5.82;;;;;;;;;;5064229;28;20021;-74
2021/06/19 01:13:55;;;;;;;6.93;5.20;;;;;;;;;;5059464;28;20033;-75
2021/06/19 01:16:21;;;;;;;11.90;5.53;;;;;;;;;;5062802;28;20081;-73
2021/06/19 01:18:47;;;;;;;11.80;6.17;;;;;;;;;;5060145;28;20024;-75
2021/06/19 01:21:17;;;;;;;9.93;5.60;;;;;;;;;;5068030;28;20423;-72
2021/06/19 01:23:43;;;;;;;10.30;5.53;;;;;;;;;;5061151;28;20033;-74
2021/06/19 01:26:12;;;;;;;8.68;6.15;;;;;;;;;;5051474;28;20130;-73
2021/06/19 01:28:38;;;;;;;9.85;6.00;;;;;;;;;;5052153;28;20020;-72
2021/06/19 01:31:05;;;;;;;9.30;5.88;;;;;;;;;;5052803;28;20032;-75
2021/06/19 01:33:34;;;;;;;10.02;5.85;;;;;;;;;;5051225;28;20036;-73
2021/06/19 01:36:00;;;;;;;8.95;6.13;;;;;;;;;;5051497;28;20040;-74
2021/06/19 01:38:26;;;;;;;11.77;6.00;;;;;;;;;;5051658;28;20386;-74
2021/06/19 01:40:52;;;;;;;10.57;6.53;;;;;;;;;;5051516;28;20052;-73
2021/06/19 01:43:18;;;;;;;9.70;5.10;;;;;;;;;;5052245;28;20036;-72
2021/06/19 01:45:44;;;;;;;9.00;5.57;;;;;;;;;;4349029;28;10000820;-75
2021/06/19 01:48:11;;;;;;;6.03;5.43;;;;;;;;;;5059875;28;20021;-73
2021/06/19 01:50:37;;;;;;;11.77;5.93;;;;;;;;;;5069373;28;20028;-72
2021/06/19 01:53:04;;;;;;;9.40;5.47;;;;;;;;;;5065052;28;20025;-75
2021/06/19 01:55:31;;;;;;;8.40;5.50;;;;;;;;;;5052393;28;20021;-73
2021/06/19 01:57:58;;;;;;;11.07;5.40;;;;;;;;;;5051071;28;20021;-75
2021/06/19 02:00:25;;;;;;;9.00;6.03;;;;;;;;;;5066010;28;20063;-73
2021/06/19 02:02:51;;;;;;;11.07;5.65;;;;;;;;;;5071091;28;20021;-75
2021/06/19 02:05:18;;;;;;;12.00;5.28;;;;;;;;;;5067271;28;20420;-74
2021/06/19 02:07:47;;;;;;;9.25;5.68;;;;;;;;;;5072112;28;20085;-72
2021/06/19 02:10:13;;;;;;;10.63;5.55;;;;;;;;;;5067988;28;20025;-76
2021/06/19 02:12:39;;;;;;;10.57;5.93;;;;;;;;;;5050503;28;20021;-74
2021/06/19 02:15:05;;;;;;;7.25;5.68;;;;;;;;;;5051729;28;20335;-73
2021/06/19 02:17:31;;;;;;;12.80;5.95;;;;;;;;;;5050330;28;20039;-74
2021/06/19 02:19:57;;;;;;;13.38;5.88;;;;;;;;;;5052675;28;20039;-75
2021/06/19 02:22:23;;;;;;;9.40;5.93;;;;;;;;;;5052612;28;20108;-75
2021/06/19 02:24:49;;;;;;;7.70;5.80;;;;;;;;;;5051239;28;20067;-73
2021/06/19 02:27:15;;;;;;;11.25;6.05;;;;;;;;;;5048797;28;20029;-74
2021/06/19 02:29:42;;;;;;;8.27;5.60;;;;;;;;;;5051417;28;20500;-72
2021/06/19 02:32:09;;;;;;;10.05;6.03;;;;;;;;;;5051588;28;20025;-76
2021/06/19 02:34:35;;;;;;;;;;;;;;;;;;5053100;28;20075;-73
2021/06/19 02:37:01;;;;;;;8.65;5.55;;;;;;;;;;5063060;28;20633;-72
2021/06/19 02:39:27;;;;;;;10.13;5.73;;;;;;;;;;5062495;28;20039;-74
2021/06/19 02:41:53;;;;;;;8.13;6.00;;;;;;;;;;5064594;28;20109;-75
2021/06/19 02:44:19;;;;;;;11.07;6.00;;;;;;;;;;5064536;28;20247;-73
2021/06/19 02:46:45;;;;;;;6.63;5.30;;;;;;;;;;5063989;28;20028;-74
2021/06/19 02:49:11;;;;;;;10.37;6.00;;;;;;;;;;5065582;28;20374;-74
2021/06/19 02:51:38;;;;;;;10.73;5.70;;;;;;;;;;5064503;28;20036;-73
2021/06/19 02:54:04;;;;;;;9.27;5.50;;;;;;;;;;5063892;28;20020;-73
2021/06/19 02:56:30;;;;;;;7.32;5.28;;;;;;;;;;5063554;28;20064;-73
2021/06/19 02:58:56;;;;;;;11.10;5.90;;;;;;;;;;5058290;28;20025;-74
2021/06/19 03:01:22;;;;;;;9.90;5.90;;;;;;;;;;5064892;28;20040;-75
2021/06/19 03:03:48;;;;;;;11.27;6.30;;;;;;;;;;5061564;28;20033;-74
2021/06/19 03:06:15;;;;;;;9.27;5.83;;;;;;;;;;5063492;28;20020;-75
2021/06/19 03:08:41;;;;;;;11.57;6.30;;;;;;;;;;5063812;28;20063;-74
2021/06/19 03:11:07;;;;;;;8.82;6.47;;;;;;;;;;5064430;28;20079;-75
2021/06/19 03:13:33;;;;;;;9.73;6.20;;;;;;;;;;5054023;28;20386;-73
2021/06/19 03:15:59;;;;;;;8.60;5.88;;;;;;;;;;5048427;28;20478;-74
2021/06/19 03:18:25;;;;;;;6.93;5.80;;;;;;;;;;5051835;28;20021;-72
2021/06/19 03:20:51;;;;;;;11.07;5.97;;;;;;;;;;5049225;28;20031;-73
2021/06/19 03:23:17;;;;;;;10.23;5.80;;;;;;;;;;5053193;28;20036;-74
2021/06/19 03:25:43;;;;;;;7.73;5.43;;;;;;;;;;5063967;28;20021;-72
2021/06/19 03:28:11;;;;;;;7.35;5.40;;;;;;;;;;5049456;28;20025;-72
2021/06/19 03:30:40;;;;;;;10.00;5.50;;;;;;;;;;5051084;28;20021;-75
2021/06/19 03:33:08;;;;;;;9.98;5.80;;;;;;;;;;5052659;28;20029;-73
2021/06/19 03:35:34;;;;;;;7.47;6.20;;;;;;;;;;5055361;28;20552;-74
2021/06/19 03:38:00;;;;;;;12.60;6.15;;;;;;;;;;5054038;28;20025;-75
2021/06/19 03:40:27;;;;;;;10.45;5.82;;;;;;;;;;5054395;28;20055;-74
2021/06/19 03:42:54;;;;;;;7.57;5.68;;;;;;;;;;5058286;28;20044;-73
2021/06/19 03:45:21;;;;;;;7.95;5.63;;;;;;;;;;5073447;28;20108;-73
2021/06/19 03:47:48;;;;;;;9.25;6.10;;;;;;;;;;5074581;28;20145;-75
2021/06/19 03:50:15;;;;;;;10.15;5.45;;;;;;;;;;5073002;28;20042;-74
2021/06/19 03:52:41;;;;;;;10.57;5.78;;;;;;;;;;5070175;28;20052;-74
2021/06/19 03:55:08;;;;;;;9.32;6.07;;;;;;;;;;5052886;28;20501;-74
2021/06/19 03:57:36;;;;;;;10.63;6.28;;;;;;;;;;5052206;28;20725;-72
2021/06/19 04:00:03;;;;;;;9.10;6.30;;;;;;;;;;5054622;28;20045;-71
2021/06/19 04:02:29;;;;;;;10.18;6.25;;;;;;;;;;5053675;28;20029;-71
2021/06/19 04:04:55;;;;;;;11.68;6.30;;;;;;;;;;5054718;28;20067;-71
2021/06/19 04:07:21;;;;;;;9.70;6.40;;;;;;;;;;4693090;28;10000118;-74
2021/06/19 04:09:48;;;;;;;9.00;6.07;;;;;;;;;;5048896;28;20794;-73
2021/06/19 04:12:15;;;;;;;13.10;6.28;;;;;;;;;;5048584;28;20565;-73
2021/06/19 04:14:41;;;;;;;8.55;6.45;;;;;;;;;;5049427;28;20111;-73
2021/06/19 04:17:08;;;;;;;12.38;5.90;;;;;;;;;;5048276;28;20032;-72
2021/06/19 04:19:35;;;;;;;10.23;5.78;;;;;;;;;;5048061;28;20100;-72
2021/06/19 04:22:02;;;;;;;9.32;5.88;;;;;;;;;;5050036;28;20063;-74
2021/06/19 04:24:28;;;;;;;11.00;6.20;;;;;;;;;;5053380;28;20033;-72
2021/06/19 04:26:54;;;;;;;8.35;5.60;;;;;;;;;;5053256;28;20039;-74
2021/06/19 04:29:20;;;;;;;9.43;6.38;;;;;;;;;;5052373;28;20389;-74
2021/06/19 04:31:46;;;;;;;7.27;5.50;;;;;;;;;;5046110;28;20020;-73
2021/06/19 04:34:12;;;;;;;11.63;5.73;;;;;;;;;;5046347;28;20028;-71
2021/06/19 04:36:38;;;;;;;10.77;5.30;;;;;;;;;;5045268;28;20098;-71
2021/06/19 04:39:04;;;;;;;6.10;5.50;;;;;;;;;;5045292;28;20037;-73
2021/06/19 04:41:57;;;;;;;13.00;5.70;;;;;;;;;;5043231;28;20045;-74
2021/06/19 04:46:44;;;;;;;7.53;5.07;;;;;;;;;;5048217;28;20033;-72
2021/06/19 04:49:10;;;;;;;8.85;5.30;;;;;;;;;;5047803;28;20025;-71
2021/06/19 04:51:36;;;;;;;10.32;5.10;;;;;;;;;;5047101;28;20025;-72
2021/06/19 04:54:02;;;;;;;7.33;4.80;;;;;;;;;;5047747;28;20031;-73
2021/06/19 04:56:28;;;;;;;9.97;5.00;;;;;;;;;;5047054;28;20394;-71
2021/06/19 04:58:54;;;;;;;7.25;4.75;;;;;;;;;;5047447;28;21386;-72
2021/06/19 05:01:20;;;;;;;6.90;5.00;;;;;;;;;;5048181;28;20029;-73
2021/06/19 05:03:46;;;;;;;9.93;5.40;;;;;;;;;;5048368;28;20029;-72
2021/06/19 05:06:13;;;;;;;8.65;5.25;;;;;;;;;;5048807;28;20029;-73
2021/06/19 05:08:40;;;;;;;7.75;5.00;;;;;;;;;;5048857;28;20017;-72
2021/06/19 05:11:06;;;;;;;11.35;5.10;;;;;;;;;;5047075;28;20123;-73
2021/06/19 05:13:32;;;;;;;8.47;5.13;;;;;;;;;;5047519;28;20021;-73
2021/06/19 05:15:58;;;;;;;7.63;4.90;;;;;;;;;;5048702;28;20386;-72
2021/06/19 05:18:24;;;;;;;9.30;4.33;;;;;;;;;;5047320;28;20036;-69
2021/06/19 05:20:50;;;;;;;7.93;4.70;;;;;;;;;;5045771;28;20087;-69
2021/06/19 05:23:16;;;;;;;7.37;4.70;;;;;;;;;;5046130;28;20124;-69
2021/06/19 05:25:42;;;;;;;7.60;5.00;;;;;;;;;;5046859;28;20502;-69
2021/06/19 05:28:09;;;;;;;4.80;4.17;;;;;;;;;;5048023;28;20021;-69
2021/06/19 05:30:35;;;;;;;6.97;4.73;;;;;;;;;;5047367;28;20448;-70
2021/06/19 05:33:01;;;;;;;5.97;4.45;;;;;;;;;;5046338;28;20025;-68
2021/06/19 05:35:27;;;;;;;9.13;4.15;;;;;;;;;;5047959;28;20025;-68
2021/06/19 05:37:53;;;;;;;6.83;3.83;;;;;;;;;;5047408;28;20113;-69
2021/06/19 05:40:19;;;;;;;4.83;3.23;;;;;;;;;;5048105;28;20486;-69
2021/06/19 05:42:45;;;;;;;7.83;3.20;;;;;;;;;;5045399;28;20091;-69
2021/06/19 05:45:11;;;;;;;5.60;2.77;;;;;;;;;;5048031;28;20102;-69
2021/06/19 05:47:37;;;;;;;8.50;3.45;;;;;;;;;;5046197;28;20032;-68
2021/06/19 05:50:04;;;;;;;4.88;2.80;;;;;;;;;;5047000;28;20017;-69
2021/06/19 05:52:30;;;;;;;5.80;2.50;;;;;;;;;;5046731;28;20037;-69
2021/06/19 05:54:56;;;;;;;7.83;3.10;;;;;;;;;;5046590;28;20032;-70
2021/06/19 05:57:22;;;;;;;4.63;2.47;;;;;;;;;;5045097;28;20108;-70
2021/06/19 05:59:48;;;;;;;5.68;2.30;;;;;;;;;;5048965;28;20496;-70
2021/06/19 06:02:14;;;;;;;3.20;2.03;;;;;;;;;;5046719;28;20025;-70
2021/06/19 06:04:40;;;;;;;4.83;2.10;;;;;;;;;;5048860;28;20278;-70
2021/06/19 06:07:06;;;;;;;3.03;2.00;;;;;;;;;;5049513;28;20028;-71
2021/06/19 06:09:32;;;;;;;5.70;1.90;;;;;;;;;;5051320;28;21116;-69
2021/06/19 06:11:58;;;;;;;4.77;2.07;;;;;;;;;;5048218;28;20040;-71
2021/06/19 06:14:24;;;;;;;2.23;1.80;;;;;;;;;;5051870;28;20269;-70
2021/06/19 06:16:51;;;;;;;3.70;1.90;;;;;;;;;;5051495;28;20036;-70
2021/06/19 06:19:19;;;;;;;2.88;1.98;;;;;;;;;;5050442;28;20245;-69
2021/06/19 06:21:45;;;;;;;3.13;1.75;;;;;;;;;;5049348;28;21292;-70
2021/06/19 06:24:11;;;;;;;3.88;1.75;;;;;;;;;;5050245;28;20029;-70
2021/06/19 06:26:37;;;;;;;3.20;1.83;;;;;;;;;;5047365;28;20029;-69
2021/06/19 06:29:03;;;;;;;6.87;1.70;;;;;;;;;;5048750;28;20033;-69
2021/06/19 06:31:29;;;;;;;3.65;2.00;;;;;;;;;;5046868;28;20297;-70
2021/06/19 06:33:56;;;;;;;6.38;2.15;;;;;;;;;;5040472;28;21502;-70
2021/06/19 06:36:22;;;;;;;6.07;2.08;;;;;;;;;;5044992;28;20036;-69
2021/06/19 06:38:48;;;;;;;2.77;2.00;;;;;;;;;;5046704;28;20112;-69
2021/06/19 06:41:14;;;;;;;4.23;2.10;;;;;;;;;;5044380;28;20369;-69
2021/06/19 06:43:40;;;;;;;3.93;1.97;;;;;;;;;;5045500;28;20497;-69
2021/06/19 06:46:06;;;;;;;3.57;2.23;;;;;;;;;;5045890;28;20258;-69
2021/06/19 06:48:32;;;;;;;5.00;2.07;;;;;;;;;;5043309;28;20035;-69
2021/06/19 06:50:58;;;;;;;7.37;2.27;;;;;;;;;;5043957;28;20297;-69
2021/06/19 06:53:24;;;;;;;3.58;2.20;;;;;;;;;;5045185;28;20404;-68
2021/06/19 06:55:50;;;;;;;9.32;2.30;;;;;;;;;;5042505;28;20132;-68
2021/06/19 06:58:16;;;;;;;4.30;1.90;;;;;;;;;;5044640;28;20027;-69
2021/06/19 07:00:42;;;;;;;5.97;2.43;;;;;;;;;;5046114;28;20123;-68
2021/06/19 07:03:08;;;;;;;3.47;2.05;;;;;;;;;;5043185;28;20422;-69
2021/06/19 07:05:34;;;;;;;3.40;2.00;;;;;;;;;;5043483;28;20036;-68
2021/06/19 07:08:00;;;;;;;5.95;2.22;;;;;;;;;;5044307;28;20021;-70
2021/06/19 07:10:27;;;;;;;4.78;2.22;;;;;;;;;;5045567;28;20025;-69
2021/06/19 07:12:53;;;;;;;3.58;2.17;;;;;;;;;;5045464;28;20545;-70
2021/06/19 07:15:19;;;;;;;4.15;2.03;;;;;;;;;;5045232;28;20040;-70
2021/06/19 07:17:46;;;;;;;4.32;2.10;;;;;;;;;;5044496;28;20056;-69
2021/06/19 07:20:13;;;;;;;3.88;1.88;;;;;;;;;;5045301;28;20020;-69
2021/06/19 07:22:39;;;;;;;4.93;2.00;;;;;;;;;;5044088;28;20029;-69
2021/06/19 07:25:07;;;;;;;3.20;1.98;;;;;;;;;;5041782;28;20795;-69
2021/06/19 07:27:33;;;;;;;4.07;1.98;;;;;;;;;;5044369;28;20489;-69
2021/06/19 07:29:59;;;;;;;4.93;2.03;;;;;;;;;;5043192;28;20021;-70
2021/06/19 07:32:25;;;;;;;5.38;1.70;;;;;;;;;;5043187;28;20128;-70
2021/06/19 07:34:51;;;;;;;2.00;1.67;;;;;;;;;;5044003;28;20480;-68
2021/06/19 07:37:17;;;;;;;3.63;1.95;;;;;;;;;;5042291;28;20040;-74
2021/06/19 07:39:44;;;;;;;4.50;1.80;;;;;;;;;;5043821;28;20033;-71
2021/06/19 07:42:10;;;;;;;2.88;1.77;;;;;;;;;;5044200;28;20125;-71
2021/06/19 07:44:36;;;;;;;4.00;1.98;;;;;;;;;;5043301;28;20103;-72
2021/06/19 07:47:03;;;;;;;2.22;1.60;;;;;;;;;;5043983;28;20017;-73
2021/06/19 07:49:29;;;;;;;6.50;1.77;;;;;;;;;;5042333;28;20038;-72
2021/06/19 07:51:55;;;;;;;2.63;1.67;;;;;;;;;;5038532;28;20053;-74
2021/06/19 07:54:21;;;;;;;1.60;1.50;;;;;;;;;;5035032;28;20022;-74
2021/06/19 07:56:47;;;;;;;2.33;1.52;;;;;;;;;;5034652;28;20029;-72
2021/06/19 07:59:14;;;;;;;2.13;1.77;;;;;;;;;;5040860;28;20126;-73
2021/06/19 08:01:40;;;;;;;3.58;1.88;;;;;;;;;;5048432;28;20049;-74
2021/06/19 08:04:06;;;;;;;4.87;1.80;;;;;;;;;;5037320;28;20555;-74
2021/06/19 08:06:32;;;;;;;2.80;1.65;;;;;;;;;;5037089;28;20849;-75
2021/06/19 08:08:59;;;;;;;7.97;1.67;;;;;;;;;;5045224;28;20079;-74
2021/06/19 08:11:26;;;;;;;4.72;1.50;;;;;;;;;;5048049;28;20028;-74
2021/06/19 08:13:53;;;;;;;2.53;1.58;;;;;;;;;;5049436;28;20072;-74
2021/06/19 08:16:19;;;;;;;1.93;1.30;;;;;;;;;;4698047;28;10001264;-72
2021/06/19 08:18:46;;;;;;;3.35;1.40;;;;;;;;;;5042818;28;20032;-71
2021/06/19 08:21:13;;;;;;;3.17;1.50;;;;;;;;;;5043490;28;20037;-73
2021/06/19 08:23:41;;;;;;;;;;;;;;;;;;5042407;28;20448;-73
2021/06/19 08:26:07;;;;;;;5.55;1.55;;;;;;;;;;5042516;28;20007;-74
2021/06/19 08:28:34;;;;;;;2.35;1.17;;;;;;;;;;5043897;28;20058;-74
2021/06/19 08:31:01;;;;;;;1.40;1.27;;;;;;;;;;5042289;28;20170;-72
2021/06/19 08:33:27;;;;;;;1.73;1.20;;;;;;;;;;5045691;28;20134;-74
2021/06/19 08:35:53;;;;;;;5.00;1.50;;;;;;;;;;5045339;28;20541;-74
2021/06/19 08:38:19;;;;;;;2.75;1.50;;;;;;;;;;5043060;28;20101;-75
2021/06/19 08:40:45;;;;;;;2.13;1.30;;;;;;;;;;5045238;28;20048;-73
2021/06/19 08:43:12;;;;;;;1.40;1.30;;;;;;;;;;5044858;28;20040;-72
2021/06/19 08:45:38;;;;;;;1.95;1.52;;;;;;;;;;5047539;28;20021;-72
2021/06/19 08:48:07;;;;;;;2.53;1.42;;;;;;;;;;5046137;28;20021;-75
2021/06/19 08:50:36;;;;;;;2.65;1.30;;;;;;;;;;5048478;28;20074;-73
2021/06/19 08:53:02;;;;;;;3.35;1.50;;;;;;;;;;5046987;28;21137;-73
2021/06/19 08:55:28;;;;;;;2.33;1.40;;;;;;;;;;5049995;28;20124;-73
2021/06/19 08:57:55;;;;;;;3.03;1.40;;;;;;;;;;5046222;28;20316;-75
2021/06/19 09:00:23;;;;;;;3.88;1.20;;;;;;;;;;5047139;28;20113;-73
2021/06/19 09:02:51;;;;;;;2.45;1.40;;;;;;;;;;5046411;28;20031;-73
2021/06/19 09:05:18;;;;;;;3.22;1.33;;;;;;;;;;5044261;28;20025;-74
2021/06/19 09:07:48;;;;;;;2.20;1.40;;;;;;;;;;5046967;28;20025;-74
2021/06/19 09:10:28;;;;;;;3.47;1.30;;;;;;;;;;5048081;28;20060;-74
2021/06/19 09:12:55;;;;;;;1.95;1.30;;;;;;;;;;5047121;28;20024;-76
2021/06/19 09:15:21;;;;;;;3.25;1.30;;;;;;;;;;5048160;28;20110;-73
2021/06/19 09:18:07;;;;;;;3.28;1.38;;;;;;;;;;5045940;28;20029;-72
2021/06/19 09:20:33;;;;;;;;;;;;;;;;;;5048487;28;20025;-72
2021/06/19 09:23:03;;;;;;;1.38;1.00;;;;;;;;;;5046627;28;20412;-73
2021/06/19 09:25:29;;;;;;;7.13;1.42;;;;;;;;;;5047468;28;20025;-73
2021/06/19 09:27:57;;;;;;;4.03;1.25;;;;;;;;;;5046373;28;20017;-73
2021/06/19 09:30:24;;;;;;;3.50;1.00;;;;;;;;;;5044425;28;20052;-74
2021/06/19 09:32:54;;;;;;;1.35;0.90;;;;;;;;;;5047958;28;20025;-73
2021/06/19 09:35:39;;;;;;;3.38;1.30;;;;;;;;;;5047592;28;20044;-73
2021/06/19 09:38:07;;;;;;;1.65;1.13;;;;;;;;;;5045249;28;20573;-73
2021/06/19 09:40:38;;;;;;;2.95;1.25;;;;;;;;;;5041474;28;20048;-74
2021/06/19 09:43:06;;;;;;;2.28;1.35;;;;;;;;;;5044114;28;20038;-76
2021/06/19 09:45:33;;;;;;;2.22;1.10;;;;;;;;;;5046523;28;20021;-74
2021/06/19 09:47:59;;;;;;;2.03;1.00;;;;;;;;;;5045800;28;20052;-74
2021/06/19 09:50:26;;;;;;;1.55;1.10;;;;;;;;;;5043660;28;20399;-74
2021/06/19 09:52:52;;;;;;;2.03;1.10;;;;;;;;;;5045496;28;20119;-73
2021/06/19 09:55:18;;;;;;;2.05;0.95;;;;;;;;;;5046290;28;20095;-74
2021/06/19 09:57:48;;;;;;;1.45;1.20;;;;;;;;;;5044962;28;20095;-74
2021/06/19 10:00:14;;;;;;;1.42;0.90;;;;;;;;;;5047703;28;20029;-74
2021/06/19 10:02:41;;;;;;;1.50;1.13;;;;;;;;;;5045110;28;20033;-74
2021/06/19 10:05:08;;;;;;;1.77;1.15;;;;;;;;;;5045811;28;20021;-75
2021/06/19 10:07:35;;;;;;;1.65;0.98;;;;;;;;;;5046052;28;20021;-73
2021/06/19 10:10:02;;;;;;;3.38;1.48;;;;;;;;;;5047131;28;20074;-75
2021/06/19 10:12:29;;;;;;;2.15;1.33;;;;;;;;;;5046245;28;20021;-73
2021/06/19 10:15:00;;;;;;;2.47;1.10;;;;;;;;;;5046991;28;20028;-73
2021/06/19 10:17:34;;;;;;;2.50;1.10;;;;;;;;;;5044538;28;20075;-73
2021/06/19 10:20:03;;;;;;;2.17;1.13;;;;;;;;;;5043451;28;20052;-75
2021/06/19 10:22:30;;;;;;;4.82;1.30;;;;;;;;;;5046612;28;20085;-73
2021/06/19 10:25:01;;;;;;;6.10;1.45;;;;;;;;;;5046820;28;20021;-73
2021/06/19 10:27:30;;;;;;;2.22;1.33;;;;;;;;;;5045042;28;20110;-73
2021/06/19 10:29:57;;;;;;;2.95;1.40;;;;;;;;;;5043634;28;21452;-73
2021/06/19 10:32:38;;;;;;;1.60;1.30;;;;;;;;;;5045106;28;20020;-73
2021/06/19 10:35:04;;;;;;;3.38;1.40;;;;;;;;;;5045030;28;20028;-74
2021/06/19 10:37:31;;;;;;;2.50;1.23;;;;;;;;;;5043502;28;20028;-74
2021/06/19 10:39:57;;;;;;;1.83;1.30;;;;;;;;;;5041153;28;20555;-74
2021/06/19 10:42:52;;;;;;;2.95;1.30;;;;;;;;;;5040353;28;20590;-75
2021/06/19 10:45:23;;;;;;;1.90;1.33;;;;;;;;;;5044278;28;20051;-74
2021/06/19 10:48:01;;;;;;;2.72;1.60;;;;;;;;;;5042877;28;20083;-75
2021/06/19 10:50:27;;;;;;;2.03;1.38;;;;;;;;;;5044017;28;20813;-73
2021/06/19 10:53:06;;;;;;;2.67;1.42;;;;;;;;;;5044164;28;20039;-72
2021/06/19 10:55:33;;;;;;;2.50;1.60;;;;;;;;;;5046561;28;20029;-75
2021/06/19 10:58:01;;;;;;;2.25;1.60;;;;;;;;;;5044390;28;20482;-73
2021/06/19 11:00:28;;;;;;;2.10;1.60;;;;;;;;;;5044275;28;20123;-74
2021/06/19 11:02:55;;;;;;;1.88;1.40;;;;;;;;;;5042248;28;20068;-74
2021/06/19 11:05:43;;;;;;;3.35;1.58;;;;;;;;;;5044936;28;20017;-73
2021/06/19 11:08:10;;;;;;;4.18;1.73;;;;;;;;;;5042795;28;20009;-75
2021/06/19 11:10:49;;;;;;;3.08;1.75;;;;;;;;;;5045402;28;20055;-73
2021/06/19 11:13:28;;;;;;;5.28;1.90;;;;;;;;;;5046522;28;20028;-72
2021/06/19 11:16:06;;;;;;;4.30;1.77;;;;;;;;;;5044710;28;20032;-75
2021/06/19 11:18:48;;;;;;;2.80;1.75;;;;;;;;;;5045146;28;20028;-74
2021/06/19 11:21:15;;;;;;;3.78;1.55;;;;;;;;;;5043035;28;20029;-75
2021/06/19 11:24:03;;;;;;;2.22;1.48;;;;;;;;;;5036683;28;20044;-73
2021/06/19 11:27:01;;;;;;;3.40;1.92;;;;;;;;;;5040823;28;20032;-73
2021/06/19 11:29:36;;;;;;;2.92;1.73;;;;;;;;;;5037122;28;20025;-75
2021/06/19 11:32:41;;;;;;;2.67;1.63;;;;;;;;;;5039884;28;20027;-73
2021/06/19 11:35:27;;;;;;;2.90;1.50;;;;;;;;;;5032470;28;20062;-75
2021/06/19 11:38:00;;;;;;;3.47;1.73;;;;;;;;;;5015427;28;20021;-74
2021/06/19 11:40:27;;;;;;;4.00;1.63;;;;;;;;;;5038242;28;20037;-73
2021/06/19 11:42:53;;;;;;;3.00;1.38;;;;;;;;;;5041676;28;20037;-74
2021/06/19 11:45:19;;;;;;;6.13;1.55;;;;;;;;;;5042824;28;20112;-73
2021/06/19 11:47:47;;;;;;;5.03;2.05;;;;;;;;;;5043545;28;20037;-74
2021/06/19 11:50:14;;;;;;;3.60;1.58;;;;;;;;;;5044898;28;20053;-74
2021/06/19 11:52:40;;;;;;;3.92;1.75;;;;;;;;;;5046905;28;20025;-73
2021/06/19 11:55:06;;;;;;;2.78;1.60;;;;;;;;;;5047974;28;20021;-72
2021/06/19 11:57:32;;;;;;;4.53;1.60;;;;;;;;;;5045871;28;20162;-74
2021/06/19 12:00:05;;;;;;;2.80;1.52;;;;;;;;;;5047179;28;20038;-72
2021/06/19 12:02:31;;;;;;;4.13;1.80;;;;;;;;;;5048915;28;20029;-75
2021/06/19 12:04:58;;;;;;;3.40;1.50;;;;;;;;;;5046927;28;20044;-75
2021/06/19 12:07:25;;;;;;;2.70;1.50;;;;;;;;;;5046795;28;20076;-74
2021/06/19 12:09:52;;;;;;;3.05;1.77;;;;;;;;;;5046728;28;20132;-74
2021/06/19 12:12:18;;;;;;;;;;;;;;;;;;5048271;28;20040;-73
2021/06/19 12:14:44;;;;;;;;;;;;;;;;;;5048486;28;19908;-74
2021/06/19 12:17:13;;;;;;;7.28;1.83;;;;;;;;;;5047778;28;19908;-74
2021/06/19 12:19:44;;;;;;;6.60;1.63;;;;;;;;;;5047444;28;20053;-74
2021/06/19 12:22:11;;;;;;;3.58;1.77;;;;;;;;;;5048256;28;20032;-72
2021/06/19 12:24:48;;;;;;;5.00;1.67;;;;;;;;;;5046660;28;20052;-72
2021/06/19 12:27:16;;;;;;;;;;;;;;;;;;5040396;28;21199;-75
2021/06/19 12:29:44;;;;;;;3.25;1.90;;;;;;;;;;5052650;28;19905;-73
2021/06/19 12:32:18;;;;;;;5.18;1.63;;;;;;;;;;5050226;28;20017;-74
2021/06/19 12:34:44;;;;;;;5.13;1.88;;;;;;;;;;5049435;28;20063;-74
2021/06/19 12:37:10;;;;;;;6.00;1.92;;;;;;;;;;5046780;28;20033;-73
2021/06/19 12:39:36;;;;;;;2.95;1.60;;;;;;;;;;5043692;28;20035;-73
2021/06/19 12:42:02;;;;;;;4.72;1.83;;;;;;;;;;5043469;28;20072;-74
2021/06/19 12:44:28;;;;;;;4.75;1.92;;;;;;;;;;5044021;28;20108;-72
2021/06/19 12:47:13;;;;;;;8.48;2.45;;;;;;;;;;5042277;28;20441;-72
2021/06/19 12:49:55;;;;;;;6.05;1.88;;;;;;;;;;5044071;28;20032;-72
2021/06/19 12:52:22;;;;;;;5.25;1.70;;;;;;;;;;5044620;28;20028;-74
2021/06/19 12:54:48;;;;;;;3.08;2.00;;;;;;;;;;5047047;28;20785;-72
2021/06/19 12:57:18;;;;;;;4.07;1.90;;;;;;;;;;5045351;28;20016;-71
2021/06/19 12:59:48;;;;;;;3.22;1.77;;;;;;;;;;5043543;28;20056;-73
2021/06/19 13:02:14;;;;;;;4.63;1.83;;;;;;;;;;5045816;28;20036;-73
2021/06/19 13:04:40;;;;;;;5.35;1.88;;;;;;;;;;5046242;28;20035;-73
2021/06/19 13:07:14;;;;;;;5.25;2.00;;;;;;;;;;5047557;28;20517;-72
2021/06/19 13:09:50;;;;;;;4.63;1.70;;;;;;;;;;5047287;28;20474;-72
2021/06/19 13:12:22;;;;;;;3.10;1.63;;;;;;;;;;5044156;28;20128;-73
2021/06/19 13:15:07;;;;;;;4.88;1.85;;;;;;;;;;5045562;28;20028;-72
2021/06/19 13:17:42;;;;;;;7.10;1.83;;;;;;;;;;5048106;28;20021;-74
2021/06/19 13:20:23;;;;;;;3.85;1.73;;;;;;;;;;5047330;28;20040;-74
2021/06/19 13:23:02;;;;;;;3.28;2.03;;;;;;;;;;5047089;28;20029;-74
2021/06/19 13:26:01;;;;;;;5.40;1.83;;;;;;;;;;5046859;28;20029;-73
2021/06/19 13:28:38;;;;;;;5.50;2.33;;;;;;;;;;5039773;28;20254;-74
2021/06/19 13:31:11;;;;;;;5.05;2.00;;;;;;;;;;5046945;28;20040;-73
2021/06/19 13:33:43;;;;;;;3.95;2.47;;;;;;;;;;5045469;28;20036;-73
2021/06/19 13:36:20;;;;;;;5.63;2.28;;;;;;;;;;5046328;28;20055;-72
2021/06/19 13:38:50;;;;;;;4.88;1.80;;;;;;;;;;5045828;28;20136;-72
2021/06/19 13:41:22;;;;;;;5.05;2.50;;;;;;;;;;5046139;28;20091;-73
2021/06/19 13:43:48;;;;;;;4.85;2.05;;;;;;;;;;5047357;28;20072;-73
2021/06/19 13:46:14;;;;;;;5.88;2.00;;;;;;;;;;5045633;28;20025;-73
2021/06/19 13:48:40;;;;;;;5.15;2.20;;;;;;;;;;5045895;28;20025;-72
2021/06/19 13:51:09;;;;;;;3.78;1.98;;;;;;;;;;5046257;28;20029;-74
2021/06/19 13:53:35;;;;;;;7.47;2.15;;;;;;;;;;5045400;28;20035;-73
2021/06/19 13:56:06;;;;;;;5.88;2.42;;;;;;;;;;5047517;28;20029;-74
2021/06/19 13:58:33;;;;;;;4.72;2.08;;;;;;;;;;5043339;28;20025;-71
2021/06/19 14:01:00;;;;;;;5.72;2.08;;;;;;;;;;5046691;28;20025;-73
2021/06/19 14:03:26;;;;;;;4.93;2.40;;;;;;;;;;5044504;28;20029;-74
2021/06/19 14:05:54;;;;;;;4.22;2.10;;;;;;;;;;5043997;28;20036;-72
2021/06/19 14:08:20;;;;;;;3.65;2.15;;;;;;;;;;5046557;28;20063;-72
2021/06/19 14:10:46;;;;;;;5.63;2.00;;;;;;;;;;5046887;28;20089;-72
2021/06/19 14:13:12;;;;;;;5.25;1.90;;;;;;;;;;5043937;28;20544;-72
2021/06/19 14:15:38;;;;;;;5.90;2.08;;;;;;;;;;5046288;28;20039;-72
2021/06/19 14:18:04;;;;;;;5.95;2.03;;;;;;;;;;5042953;28;20490;-72
2021/06/19 14:20:30;;;;;;;6.25;2.15;;;;;;;;;;5036423;28;20047;-73
2021/06/19 14:22:56;;;;;;;4.72;2.10;;;;;;;;;;5041788;28;20104;-72
2021/06/19 14:25:22;;;;;;;3.78;2.10;;;;;;;;;;5043776;28;20079;-72
2021/06/19 14:27:50;;;;;;;6.00;2.30;;;;;;;;;;5041101;28;20029;-74
2021/06/19 14:30:16;;;;;;;3.67;2.47;;;;;;;;;;5042734;28;20021;-72
2021/06/19 14:32:42;;;;;;;;;;;;;;;;;;5044521;28;20448;-73
2021/06/19 14:35:09;;;;;;;;;;;;;;;;;;5043166;28;19919;-73
2021/06/19 14:37:35;;;;;;;5.18;2.17;;;;;;;;;;5040535;28;19990;-74
2021/06/19 14:40:01;;;;;;;8.70;2.28;;;;;;;;;;5041675;28;20040;-72
2021/06/19 14:42:27;;;;;;;5.97;2.17;;;;;;;;;;5041251;28;20139;-73
2021/06/19 14:44:55;;;;;;;6.38;2.40;;;;;;;;;;5042303;28;20095;-73
2021/06/19 14:47:23;;;;;;;6.85;2.35;;;;;;;;;;5044697;28;20485;-72
2021/06/19 14:49:49;;;;;;;4.40;2.20;;;;;;;;;;5044470;28;20071;-72